createdAt,value
2023-05-20T00:01:11.233Z,18.65
2023-05-20T00:03:38.827Z,17.42
2023-05-20T00:06:06.252Z,18.98
2023-05-20T00:08:33.486Z,19.63
2023-05-20T00:11:00.952Z,18.88
2023-05-20T00:13:28.329Z,20.50
2023-05-20T00:15:55.555Z,19.58
2023-05-20T00:18:22.851Z,19.13
2023-05-20T00:20:50.200Z,19.77
2023-05-20T00:23:17.354Z,21.00
2023-05-20T00:25:44.135Z,21.73
2023-05-20T00:28:11.527Z,18.98
2023-05-20T00:30:42.569Z,21.30
2023-05-20T00:33:09.999Z,21.65
2023-05-20T00:35:37.239Z,21.65
2023-05-20T00:38:04.600Z,21.23
2023-05-20T00:40:31.846Z,22.25
2023-05-20T00:42:59.073Z,21.98
2023-05-20T00:45:26.485Z,22.02
2023-05-20T00:47:54.080Z,22.38
2023-05-20T00:50:22.088Z,21.23
2023-05-20T00:52:52.187Z,21.80
2023-05-20T00:55:19.601Z,21.08
2023-05-20T00:57:47.099Z,20.63
2023-05-20T01:00:14.905Z,22.77
2023-05-20T01:02:42.306Z,22.88
2023-05-20T01:05:09.997Z,21.83
2023-05-20T01:07:37.094Z,24.17
2023-05-20T01:10:04.811Z,25.17
2023-05-20T01:13:00.367Z,23.55
2023-05-20T01:15:28.498Z,22.35
2023-05-20T01:18:01.970Z,24.42
2023-05-20T01:20:32.926Z,24.02
2023-05-20T01:23:00.296Z,24.60
2023-05-20T01:25:27.872Z,24.70
2023-05-20T01:27:58.168Z,22.65
2023-05-20T01:30:34.495Z,23.20
2023-05-20T01:33:21.537Z,24.20
2023-05-20T01:35:49.477Z,24.23
2023-05-20T01:38:19.378Z,22.85
2023-05-20T01:40:48.990Z,23.08
2023-05-20T01:43:19.380Z,23.08
2023-05-20T01:45:46.883Z,22.23
2023-05-20T01:48:14.316Z,23.23
2023-05-20T01:50:41.723Z,23.75
2023-05-20T01:53:10.099Z,25.45
2023-05-20T01:55:36.979Z,25.00
2023-05-20T01:58:04.287Z,26.75
2023-05-20T02:00:34.050Z,26.10
2023-05-20T02:03:02.025Z,24.67
2023-05-20T02:05:29.338Z,25.52
2023-05-20T02:07:56.732Z,25.52
2023-05-20T02:10:24.026Z,26.25
2023-05-20T02:12:51.345Z,24.70
2023-05-20T02:15:18.579Z,26.27
2023-05-20T02:17:47.531Z,25.00
2023-05-20T02:20:14.807Z,24.85
2023-05-20T02:22:42.236Z,25.95
2023-05-20T02:25:10.342Z,24.35
2023-05-20T02:27:37.737Z,26.05
2023-05-20T02:30:05.382Z,26.00
2023-05-20T02:32:34.284Z,26.85
2023-05-20T02:35:01.732Z,25.40
2023-05-20T02:37:29.323Z,26.45
2023-05-20T02:39:56.798Z,23.48
2023-05-20T02:42:24.276Z,28.55
2023-05-20T02:44:51.654Z,23.83
2023-05-20T02:47:19.023Z,24.90
2023-05-20T02:49:47.009Z,24.05
2023-05-20T02:52:14.586Z,23.52
2023-05-20T02:54:41.543Z,20.08
2023-05-20T02:57:09.025Z,22.27
2023-05-20T02:59:36.477Z,21.25
2023-05-20T03:02:03.690Z,20.17
2023-05-20T03:04:32.178Z,19.42
2023-05-20T03:06:59.108Z,21.05
2023-05-20T03:09:26.467Z,19.63
2023-05-20T03:11:53.657Z,21.45
2023-05-20T03:14:20.702Z,20.15
2023-05-20T03:16:47.892Z,17.80
2023-05-20T03:19:14.652Z,19.65
2023-05-20T03:21:41.997Z,20.02
2023-05-20T03:24:09.246Z,18.30
2023-05-20T03:26:38.147Z,18.40
2023-05-20T03:29:06.040Z,19.42
2023-05-20T03:31:32.731Z,18.92
2023-05-20T03:33:59.870Z,19.42
2023-05-20T03:36:26.869Z,19.38
2023-05-20T03:38:53.569Z,19.17
2023-05-20T03:41:21.401Z,21.85
2023-05-20T03:43:48.643Z,20.10
2023-05-20T03:46:15.874Z,19.55
2023-05-20T03:48:43.327Z,20.15
2023-05-20T03:51:10.101Z,19.25
2023-05-20T03:53:37.420Z,20.08
2023-05-20T03:56:04.835Z,21.23
2023-05-20T03:58:32.020Z,18.98
2023-05-20T04:00:59.330Z,19.20
2023-05-20T04:03:26.312Z,19.63
2023-05-20T04:05:53.647Z,20.70
2023-05-20T04:08:22.546Z,19.02
2023-05-20T04:10:49.923Z,19.67
2023-05-20T04:13:17.038Z,19.60
2023-05-20T04:15:43.737Z,19.70
2023-05-20T04:18:11.153Z,21.02
2023-05-20T04:20:37.951Z,19.30
2023-05-20T04:23:04.655Z,19.77
2023-05-20T04:25:31.977Z,20.80
2023-05-20T04:27:59.990Z,19.55
2023-05-20T04:30:26.832Z,21.23
2023-05-20T04:32:55.054Z,19.38
2023-05-20T04:35:21.915Z,20.27
2023-05-20T04:37:49.221Z,19.52
2023-05-20T04:40:17.388Z,20.02
2023-05-20T04:42:45.259Z,21.00
2023-05-20T04:45:13.227Z,19.52
2023-05-20T04:47:40.506Z,19.77
2023-05-20T04:50:12.677Z,19.42
2023-05-20T04:52:39.927Z,20.40
2023-05-20T04:55:10.808Z,19.92
2023-05-20T04:57:42.816Z,19.85
2023-05-20T05:00:11.881Z,20.67
2023-05-20T05:02:39.796Z,20.42
2023-05-20T05:05:07.214Z,20.88
2023-05-20T05:07:34.602Z,22.48
2023-05-20T05:10:01.858Z,21.58
2023-05-20T05:12:29.169Z,22.05
2023-05-20T05:14:56.583Z,21.05
2023-05-20T05:17:23.329Z,20.45
2023-05-20T05:19:50.629Z,21.25
2023-05-20T05:22:17.930Z,20.52
2023-05-20T05:24:45.188Z,20.60
2023-05-20T05:27:11.997Z,20.40
2023-05-20T05:29:38.764Z,20.90
2023-05-20T05:32:05.826Z,20.77
2023-05-20T05:34:32.631Z,19.27
2023-05-20T05:36:59.707Z,19.27
2023-05-20T05:39:26.755Z,21.88
2023-05-20T05:41:54.412Z,20.70
2023-05-20T05:44:21.273Z,22.38
2023-05-20T05:46:48.647Z,19.77
2023-05-20T05:49:15.483Z,19.88
2023-05-20T05:51:42.679Z,20.70
2023-05-20T05:54:09.598Z,19.88
2023-05-20T05:56:36.803Z,20.30
2023-05-20T05:59:05.331Z,20.10
2023-05-20T06:01:32.069Z,20.30
2023-05-20T06:03:59.433Z,21.60
2023-05-20T06:06:26.957Z,19.50
2023-05-20T06:08:54.870Z,22.15
2023-05-20T06:11:23.282Z,20.25
2023-05-20T06:13:50.634Z,20.17
2023-05-20T06:16:17.812Z,21.55
2023-05-20T06:18:47.515Z,22.15
2023-05-20T06:21:14.649Z,21.05
2023-05-20T06:23:41.426Z,21.15
2023-05-20T06:26:08.372Z,20.20
2023-05-20T06:28:35.227Z,21.02
2023-05-20T06:31:02.564Z,23.88
2023-05-20T06:33:30.345Z,22.70
2023-05-20T06:35:59.175Z,22.67
2023-05-20T06:38:26.046Z,22.13
2023-05-20T06:40:53.281Z,21.85
2023-05-20T06:43:20.594Z,20.90
2023-05-20T06:45:48.182Z,21.50
2023-05-20T06:48:15.637Z,21.35
2023-05-20T06:50:42.485Z,22.02
2023-05-20T06:53:10.819Z,19.30
2023-05-20T06:55:38.771Z,20.58
2023-05-20T06:58:05.588Z,20.50
2023-05-20T07:00:32.380Z,21.55
2023-05-20T07:02:59.167Z,22.75
2023-05-20T07:05:27.878Z,20.10
2023-05-20T07:07:54.796Z,19.17
2023-05-20T07:10:21.743Z,19.88
2023-05-20T07:12:49.262Z,19.98
2023-05-20T07:15:16.635Z,20.17
2023-05-20T07:17:44.333Z,20.98
2023-05-20T07:20:11.838Z,20.55
2023-05-20T07:22:38.574Z,20.10
2023-05-20T07:25:05.836Z,20.17
2023-05-20T07:27:33.704Z,20.45
2023-05-20T07:30:00.516Z,18.30
2023-05-20T07:32:27.333Z,17.70
2023-05-20T07:34:54.104Z,18.95
2023-05-20T07:37:21.121Z,18.30
2023-05-20T07:39:47.906Z,17.40
2023-05-20T07:42:14.765Z,19.08
2023-05-20T07:44:41.537Z,18.38
2023-05-20T07:47:08.293Z,18.35
2023-05-20T07:49:35.241Z,16.75
2023-05-20T07:52:03.199Z,17.27
2023-05-20T07:54:30.052Z,17.10
2023-05-20T07:56:57.388Z,17.08
2023-05-20T07:59:25.236Z,16.52
2023-05-20T08:01:52.800Z,16.33
2023-05-20T08:04:19.560Z,15.82
2023-05-20T08:06:46.978Z,17.05
2023-05-20T08:09:13.669Z,16.55
2023-05-20T08:11:40.937Z,17.63
2023-05-20T08:14:07.716Z,18.75
2023-05-20T08:16:35.004Z,17.60
2023-05-20T08:19:01.940Z,18.02
2023-05-20T08:21:28.997Z,17.13
2023-05-20T08:23:56.336Z,18.02
2023-05-20T08:26:23.326Z,18.90
2023-05-20T08:28:50.251Z,18.80
2023-05-20T08:31:18.717Z,17.60
2023-05-20T08:33:45.435Z,18.60
2023-05-20T08:36:12.178Z,19.10
2023-05-20T08:38:38.924Z,18.65
2023-05-20T08:41:05.703Z,19.67
2023-05-20T08:43:32.855Z,17.95
2023-05-20T08:45:59.880Z,18.77
2023-05-20T08:48:30.126Z,18.10
2023-05-20T08:50:58.310Z,18.50
2023-05-20T08:53:27.160Z,19.63
2023-05-20T08:56:00.778Z,18.42
2023-05-20T08:58:30.243Z,17.02
2023-05-20T09:00:59.079Z,18.42
2023-05-20T09:03:26.187Z,17.85
2023-05-20T09:05:54.346Z,16.52
2023-05-20T09:08:26.839Z,16.23
2023-05-20T09:10:54.906Z,15.48
2023-05-20T09:13:23.767Z,14.88
2023-05-20T09:15:50.951Z,15.13
2023-05-20T09:18:17.876Z,15.45
2023-05-20T09:20:47.789Z,14.80
2023-05-20T09:23:15.023Z,15.82
2023-05-20T09:25:42.620Z,14.57
2023-05-20T09:28:09.472Z,16.60
2023-05-20T09:30:36.538Z,15.65
2023-05-20T09:33:05.463Z,16.15
2023-05-20T09:35:37.921Z,15.23
2023-05-20T09:38:08.206Z,17.13
2023-05-20T09:40:38.097Z,15.55
2023-05-20T09:43:08.076Z,14.75
2023-05-20T09:45:35.806Z,15.05
2023-05-20T09:48:04.050Z,17.40
2023-05-20T09:50:32.618Z,14.63
2023-05-20T09:53:04.416Z,14.63
2023-05-20T09:55:32.152Z,14.50
2023-05-20T09:58:02.876Z,14.80
2023-05-20T10:00:30.597Z,13.20
2023-05-20T10:02:58.597Z,14.20
2023-05-20T10:05:30.377Z,14.48
2023-05-20T10:08:15.676Z,14.32
2023-05-20T10:10:54.572Z,14.13
2023-05-20T10:13:40.522Z,13.52
2023-05-20T10:16:38.711Z,13.25
2023-05-20T10:19:19.847Z,12.10
2023-05-20T10:22:05.653Z,11.65
2023-05-20T10:24:41.430Z,12.90
2023-05-20T10:27:10.744Z,12.13
2023-05-20T10:32:27.223Z,12.65
2023-05-20T10:35:06.143Z,10.80
2023-05-20T10:37:45.265Z,11.65
2023-05-20T10:40:14.465Z,13.15
2023-05-20T10:42:42.704Z,12.05
2023-05-20T10:45:11.069Z,12.18
2023-05-20T10:47:43.362Z,12.20
2023-05-20T10:50:30.090Z,12.48
2023-05-20T10:53:05.450Z,11.98
2023-05-20T10:55:40.381Z,11.80
2023-05-20T10:58:08.085Z,12.00
2023-05-20T11:00:37.372Z,13.27
2023-05-20T11:03:06.065Z,12.80
2023-05-20T11:05:33.699Z,12.70
2023-05-20T11:08:11.024Z,12.68
2023-05-20T11:10:43.820Z,11.93
2023-05-20T11:13:14.146Z,12.02
2023-05-20T11:15:42.796Z,12.05
2023-05-20T11:18:11.763Z,12.23
2023-05-20T11:20:39.211Z,12.07
2023-05-20T11:23:06.980Z,10.93
2023-05-20T11:25:34.368Z,11.30
2023-05-20T11:28:01.198Z,11.93
2023-05-20T11:30:28.578Z,11.65
2023-05-20T11:33:02.251Z,11.75
2023-05-20T11:35:32.257Z,10.68
2023-05-20T11:38:09.763Z,11.60
2023-05-20T11:40:49.854Z,11.25
2023-05-20T11:43:18.724Z,11.88
2023-05-20T11:45:48.025Z,11.00
2023-05-20T11:48:17.916Z,11.40
2023-05-20T11:50:47.974Z,10.88
2023-05-20T11:53:20.182Z,11.45
2023-05-20T11:55:50.583Z,12.85
2023-05-20T11:58:19.797Z,11.63
2023-05-20T12:00:52.766Z,11.90
2023-05-20T12:03:24.391Z,10.75
2023-05-20T12:05:51.507Z,11.25
2023-05-20T12:08:18.395Z,10.88
2023-05-20T12:10:45.441Z,11.73
2023-05-20T12:13:13.759Z,11.55
2023-05-20T12:15:40.955Z,10.98
2023-05-20T12:18:07.955Z,11.75
2023-05-20T12:20:35.084Z,10.35
2023-05-20T12:23:02.340Z,10.85
2023-05-20T12:25:29.970Z,10.43
2023-05-20T12:27:57.066Z,10.48
2023-05-20T12:30:24.334Z,10.25
2023-05-20T12:32:52.305Z,10.25
2023-05-20T12:35:38.963Z,10.65
2023-05-20T12:38:07.032Z,11.40
2023-05-20T12:40:35.175Z,11.77
2023-05-20T12:43:04.101Z,10.95
2023-05-20T12:45:31.282Z,10.32
2023-05-20T12:47:58.413Z,10.52
2023-05-20T12:50:26.153Z,11.27
2023-05-20T12:52:53.181Z,10.80
2023-05-20T12:55:20.579Z,10.90
2023-05-20T12:57:57.854Z,11.02
2023-05-20T13:00:24.712Z,10.90
2023-05-20T13:02:52.768Z,10.23
2023-05-20T13:05:19.621Z,10.52
2023-05-20T13:07:46.825Z,10.52
2023-05-20T13:10:14.739Z,11.02
2023-05-20T13:12:46.076Z,11.07
2023-05-20T13:15:14.899Z,10.93
2023-05-20T13:17:45.494Z,11.25
2023-05-20T13:20:13.256Z,10.63
2023-05-20T13:22:40.297Z,12.13
2023-05-20T13:25:08.421Z,10.75
2023-05-20T13:27:36.138Z,10.70
2023-05-20T13:30:04.483Z,11.60
2023-05-20T13:32:31.665Z,10.95
2023-05-20T13:34:59.907Z,10.05
2023-05-20T13:37:27.508Z,11.25
2023-05-20T13:39:54.421Z,10.68
2023-05-20T13:42:21.799Z,10.27
2023-05-20T13:44:48.591Z,9.60
2023-05-20T13:47:15.358Z,9.82
2023-05-20T13:49:42.670Z,8.68
2023-05-20T13:52:09.488Z,9.20
2023-05-20T13:54:36.482Z,9.02
2023-05-20T13:57:08.079Z,9.07
2023-05-20T13:59:35.339Z,9.98
2023-05-20T14:02:03.606Z,10.50
2023-05-20T14:04:31.490Z,8.82
2023-05-20T14:07:00.860Z,9.15
2023-05-20T14:09:27.720Z,9.23
2023-05-20T14:11:55.124Z,7.70
2023-05-20T14:14:22.408Z,7.88
2023-05-20T14:16:49.165Z,8.40
2023-05-20T14:19:15.928Z,9.02
2023-05-20T14:21:42.785Z,8.77
2023-05-20T14:24:09.540Z,9.52
2023-05-20T14:26:36.664Z,8.55
2023-05-20T14:29:03.550Z,7.75
2023-05-20T14:31:30.891Z,8.13
2023-05-20T14:33:57.954Z,8.13
2023-05-20T14:36:24.782Z,7.57
2023-05-20T14:38:51.596Z,7.80
2023-05-20T14:41:18.402Z,8.98
2023-05-20T14:43:45.187Z,9.30
2023-05-20T14:46:12.495Z,8.82
2023-05-20T14:48:39.393Z,9.93
2023-05-20T14:51:06.180Z,9.75
2023-05-20T14:53:32.871Z,10.32
2023-05-20T14:56:00.188Z,10.02
2023-05-20T14:58:26.960Z,10.82
2023-05-20T15:00:53.851Z,10.95
2023-05-20T15:03:20.771Z,10.10
2023-05-20T15:05:47.491Z,9.18
2023-05-20T15:08:14.372Z,8.43
2023-05-20T15:10:41.610Z,10.02
2023-05-20T15:13:08.367Z,9.52
2023-05-20T15:15:35.152Z,10.48
2023-05-20T15:18:02.506Z,9.77
2023-05-20T15:20:29.349Z,10.30
2023-05-20T15:22:58.535Z,9.30
2023-05-20T15:25:26.566Z,11.57
2023-05-20T15:27:53.719Z,9.57
2023-05-20T15:30:22.883Z,10.98
2023-05-20T15:32:49.797Z,10.52
2023-05-20T15:35:16.668Z,10.45
2023-05-20T15:37:43.466Z,11.00
2023-05-20T15:40:10.747Z,9.60
2023-05-20T15:42:38.036Z,10.57
2023-05-20T15:45:05.056Z,9.65
2023-05-20T15:47:31.927Z,10.70
2023-05-20T15:49:58.764Z,10.50
2023-05-20T15:52:25.975Z,10.32
2023-05-20T15:54:53.341Z,10.00
2023-05-20T15:57:20.349Z,10.02
2023-05-20T15:59:47.205Z,10.30
2023-05-20T16:02:14.160Z,10.05
2023-05-20T16:04:40.953Z,10.32
2023-05-20T16:07:07.714Z,10.50
2023-05-20T16:09:34.428Z,11.05
2023-05-20T16:12:01.153Z,9.82
2023-05-20T16:14:28.002Z,11.18
2023-05-20T16:16:54.858Z,11.38
2023-05-20T16:19:22.296Z,10.10
2023-05-20T16:21:49.448Z,10.68
2023-05-20T16:24:16.320Z,9.70
2023-05-20T16:26:43.108Z,9.23
2023-05-20T16:29:09.829Z,10.02
2023-05-20T16:31:36.641Z,10.52
2023-05-20T16:34:04.127Z,10.55
2023-05-20T16:36:31.214Z,10.05
2023-05-20T16:38:57.902Z,11.07
2023-05-20T16:41:25.248Z,9.88
2023-05-20T16:43:52.058Z,9.98
2023-05-20T16:46:18.978Z,10.52
2023-05-20T16:48:46.352Z,9.60
2023-05-20T16:51:13.117Z,8.00
2023-05-20T16:53:39.829Z,7.07
2023-05-20T16:56:06.984Z,6.35
2023-05-20T16:58:33.782Z,6.55
2023-05-20T17:01:02.147Z,7.22
2023-05-20T17:03:29.003Z,7.82
2023-05-20T17:05:56.089Z,7.85
2023-05-20T17:08:22.938Z,7.75
2023-05-20T17:10:51.344Z,7.55
2023-05-20T17:13:19.998Z,8.50
2023-05-20T17:15:46.731Z,8.25
2023-05-20T17:18:14.024Z,8.20
2023-05-20T17:20:40.827Z,8.20
2023-05-20T17:23:07.554Z,8.65
2023-05-20T17:25:34.414Z,8.07
2023-05-20T17:28:01.919Z,8.60
2023-05-20T17:30:28.726Z,9.20
2023-05-20T17:32:56.495Z,9.20
2023-05-20T17:35:25.953Z,9.10
2023-05-20T17:37:54.227Z,9.75
2023-05-20T17:40:21.955Z,9.45
2023-05-20T17:42:48.731Z,9.23
2023-05-20T17:45:16.416Z,9.57
2023-05-20T17:47:43.224Z,10.45
2023-05-20T17:50:10.453Z,9.98
2023-05-20T17:52:37.294Z,9.82
2023-05-20T17:55:05.197Z,9.70
2023-05-20T17:57:31.907Z,9.15
2023-05-20T17:59:58.734Z,10.95
2023-05-20T18:02:25.575Z,10.95
2023-05-20T18:04:52.409Z,10.05
2023-05-20T18:07:19.194Z,10.90
2023-05-20T18:09:46.180Z,10.30
2023-05-20T18:12:12.933Z,9.82
2023-05-20T18:14:40.153Z,11.20
2023-05-20T18:17:07.388Z,10.27
2023-05-20T18:19:34.146Z,10.90
2023-05-20T18:22:03.094Z,11.30
2023-05-20T18:24:29.913Z,10.10
2023-05-20T18:26:57.372Z,11.32
2023-05-20T18:29:25.790Z,10.35
2023-05-20T18:31:52.749Z,10.02
2023-05-20T18:34:19.882Z,10.57
2023-05-20T18:36:47.336Z,10.38
2023-05-20T18:39:19.138Z,9.93
2023-05-20T18:41:47.612Z,9.68
2023-05-20T18:44:16.630Z,9.77
2023-05-20T18:46:43.680Z,11.20
2023-05-20T18:49:14.282Z,10.30
2023-05-20T18:51:41.912Z,10.60
2023-05-20T18:54:08.745Z,10.10
2023-05-20T18:56:36.578Z,10.48
2023-05-20T18:59:03.358Z,10.98
2023-05-20T19:01:30.423Z,9.82
2023-05-20T19:03:57.251Z,11.23
2023-05-20T19:06:24.118Z,11.10
2023-05-20T19:08:51.090Z,11.63
2023-05-20T19:11:17.952Z,11.70
2023-05-20T19:13:44.789Z,10.63
2023-05-20T19:16:11.492Z,10.35
2023-05-20T19:18:38.643Z,9.75
2023-05-20T19:21:05.998Z,10.02
2023-05-20T19:23:32.882Z,10.20
2023-05-20T19:25:59.660Z,10.23
2023-05-20T19:28:26.888Z,10.32
2023-05-20T19:30:53.954Z,9.60
2023-05-20T19:33:21.562Z,9.55
2023-05-20T19:35:48.674Z,10.73
2023-05-20T19:38:15.829Z,10.30
2023-05-20T19:40:44.650Z,10.80
2023-05-20T19:43:11.609Z,11.15
2023-05-20T19:45:38.828Z,10.30
2023-05-20T19:48:07.183Z,10.63
2023-05-20T19:50:34.444Z,10.85
2023-05-20T19:53:03.492Z,10.68
2023-05-20T19:55:30.353Z,10.70
2023-05-20T19:57:57.424Z,10.80
2023-05-20T20:00:24.489Z,10.00
2023-05-20T20:02:51.493Z,11.32
2023-05-20T20:05:19.271Z,10.93
2023-05-20T20:07:48.493Z,11.18
2023-05-20T20:10:15.835Z,10.90
2023-05-20T20:12:43.089Z,10.35
2023-05-20T20:15:10.976Z,11.45
2023-05-20T20:17:38.309Z,11.43
2023-05-20T20:20:10.505Z,12.57
2023-05-20T20:22:37.221Z,12.63
2023-05-20T20:25:04.584Z,16.67
2023-05-20T20:27:33.746Z,15.07
2023-05-20T20:30:01.020Z,13.90
2023-05-20T20:32:28.258Z,13.02
2023-05-20T20:34:55.507Z,13.32
2023-05-20T20:37:23.305Z,12.88
2023-05-20T20:39:50.368Z,12.60
2023-05-20T20:42:17.036Z,13.20
2023-05-20T20:44:48.481Z,12.73
2023-05-20T20:47:15.879Z,13.10
2023-05-20T20:49:42.984Z,14.02
2023-05-20T20:52:11.447Z,13.77
2023-05-20T20:54:40.706Z,13.95
2023-05-20T20:57:08.844Z,14.20
2023-05-20T20:59:35.540Z,13.77
2023-05-20T21:02:03.385Z,13.60
2023-05-20T21:04:30.264Z,14.65
2023-05-20T21:06:59.533Z,14.05
2023-05-20T21:09:27.527Z,13.40
2023-05-20T21:11:54.199Z,13.43
2023-05-20T21:14:21.479Z,14.23
2023-05-20T21:16:48.390Z,14.50
2023-05-20T21:19:15.097Z,14.32
2023-05-20T21:21:42.633Z,13.55
2023-05-20T21:24:09.694Z,14.38
2023-05-20T21:26:37.220Z,14.48
2023-05-20T21:29:04.001Z,14.35
2023-05-20T21:31:30.877Z,13.45
2023-05-20T21:33:57.933Z,14.35
2023-05-20T21:36:24.751Z,13.95
2023-05-20T21:38:51.819Z,13.55
2023-05-20T21:41:18.500Z,12.95
2023-05-20T21:43:45.604Z,13.35
2023-05-20T21:46:12.391Z,14.50
2023-05-20T21:48:39.330Z,13.85
2023-05-20T21:51:06.180Z,13.02
2023-05-20T21:53:33.282Z,14.63
2023-05-20T21:56:00.134Z,13.32
2023-05-20T21:58:27.506Z,13.70
2023-05-20T22:00:55.119Z,13.27
2023-05-20T22:03:22.318Z,12.57
2023-05-20T22:05:49.837Z,11.13
2023-05-20T22:08:17.965Z,11.63
2023-05-20T22:10:45.002Z,10.70
2023-05-20T22:13:13.754Z,11.00
2023-05-20T22:15:40.885Z,13.45
2023-05-20T22:18:07.995Z,14.52
2023-05-20T22:20:35.425Z,16.13
2023-05-20T22:23:02.802Z,15.48
2023-05-20T22:25:29.431Z,16.55
2023-05-20T22:27:58.944Z,21.30
2023-05-20T22:30:26.411Z,25.83
2023-05-20T22:32:53.814Z,25.90
2023-05-20T22:35:20.609Z,23.67
2023-05-20T22:37:48.405Z,21.52
2023-05-20T22:40:16.310Z,19.27
2023-05-20T22:42:43.143Z,18.48
2023-05-20T22:45:10.267Z,17.42
2023-05-20T22:47:37.061Z,16.77
2023-05-20T22:50:04.176Z,16.67
2023-05-20T22:52:32.753Z,16.17
2023-05-20T22:55:00.612Z,17.00
2023-05-20T22:57:27.603Z,16.42
2023-05-20T22:59:56.263Z,20.17
2023-05-20T23:02:26.634Z,17.48
2023-05-20T23:04:53.446Z,17.45
2023-05-20T23:07:20.956Z,15.77
2023-05-20T23:09:49.246Z,16.80
2023-05-20T23:12:16.688Z,16.35
2023-05-20T23:14:43.478Z,15.50
2023-05-20T23:17:10.849Z,16.10
2023-05-20T23:19:37.656Z,15.77
2023-05-20T23:22:04.828Z,15.18
2023-05-20T23:24:31.827Z,16.42
2023-05-20T23:26:59.740Z,15.68
2023-05-20T23:29:27.178Z,14.00
2023-05-20T23:31:53.929Z,13.93
2023-05-20T23:34:20.650Z,13.70
2023-05-20T23:36:47.388Z,14.65
2023-05-20T23:39:15.651Z,14.00
2023-05-20T23:41:44.347Z,14.80
2023-05-20T23:44:11.473Z,14.68
2023-05-20T23:46:38.396Z,14.75
2023-05-20T23:49:06.302Z,13.90
2023-05-20T23:51:33.016Z,12.75
2023-05-20T23:54:00.189Z,14.05
2023-05-20T23:56:27.109Z,14.07
2023-05-20T23:58:54.452Z,12.25
